Tanhoj, Russia
Current Conditions -  °F | °C
As of 9:30 PM on Friday 24 Oct 2014 (Local Time) from UIII Reporting Station
Snow Showers Snow Showers  
Wind Chill: 22°   Ceiling: 600
Heat Index: 30°   Visibility: 1.3mi
Dew Point: 28°   Wind: 9mph
Humidity: 93%   Direction: 340°NNW
Pressure: 29.97"   Gusts: NA
Location:  51.55°N, 105.13°E
Report Text: UIII 241330Z 34004MPS 2100 -SHSN OVC006CB M01/M02 Q1015 NOSIGRMK QBB180 QFE717/0956 30190050
Loading
Personal Weather Stations






























Interactive Weather Map
Tropical Storm Tracking
New forecast layout! Learn more

10-Day Weather Forecast

Advertisements
Track Severe Weather on mobile